createdAt,value
2018-07-27T00:00:16.868Z,35.10
2018-07-27T00:02:45.773Z,35.10
2018-07-27T00:05:14.644Z,35.30
2018-07-27T00:07:43.930Z,35.40
2018-07-27T00:10:16.489Z,35.40
2018-07-27T00:12:45.393Z,35.40
2018-07-27T00:15:14.744Z,35.60
2018-07-27T00:17:43.958Z,35.70
2018-07-27T00:20:12.806Z,35.70
2018-07-27T00:22:41.943Z,35.90
2018-07-27T00:25:12.305Z,35.90
2018-07-27T00:27:41.167Z,36.00
2018-07-27T00:30:10.275Z,35.90
2018-07-27T00:32:39.172Z,36.20
2018-07-27T00:35:08.041Z,36.20
2018-07-27T00:37:36.888Z,36.20
2018-07-27T00:40:05.740Z,36.30
2018-07-27T00:42:34.643Z,36.60
2018-07-27T00:45:03.506Z,36.80
2018-07-27T00:47:32.342Z,36.80
2018-07-27T00:50:01.425Z,36.90
2018-07-27T00:52:30.805Z,37.20
2018-07-27T00:54:59.663Z,37.20
2018-07-27T00:57:28.807Z,37.40
2018-07-27T00:59:58.183Z,37.60
2018-07-27T01:02:27.029Z,37.80
2018-07-27T01:04:55.952Z,37.80
2018-07-27T01:07:25.642Z,38.10
2018-07-27T01:09:54.523Z,38.20
2018-07-27T01:12:23.382Z,38.40
2018-07-27T01:14:52.358Z,38.40
2018-07-27T01:17:21.227Z,38.40
2018-07-27T01:19:50.313Z,38.80
2018-07-27T01:22:21.059Z,38.80
2018-07-27T01:24:50.218Z,39.10
2018-07-27T01:27:19.338Z,39.30
2018-07-27T01:29:48.448Z,39.30
2018-07-27T01:32:17.503Z,39.30
2018-07-27T01:34:46.546Z,39.40
2018-07-27T01:37:15.787Z,39.40
2018-07-27T01:39:44.632Z,39.40
2018-07-27T01:42:13.483Z,39.60
2018-07-27T01:44:42.383Z,39.40
2018-07-27T01:47:11.469Z,39.60
2018-07-27T01:49:40.324Z,39.40
2018-07-27T01:52:09.500Z,39.70
2018-07-27T01:54:39.511Z,39.70
2018-07-27T01:57:09.127Z,39.90
2018-07-27T01:59:38.356Z,39.90
2018-07-27T02:02:07.489Z,39.70
2018-07-27T02:04:36.374Z,40.00
2018-07-27T02:07:05.330Z,40.20
2018-07-27T02:09:34.256Z,40.30
2018-07-27T02:12:03.135Z,40.90
2018-07-27T02:14:31.987Z,40.90
2018-07-27T02:17:00.970Z,40.90
2018-07-27T02:19:29.894Z,41.00
2018-07-27T02:21:58.755Z,41.30
2018-07-27T02:24:28.120Z,41.30
2018-07-27T02:26:57.278Z,41.50
2018-07-27T02:29:26.437Z,41.50
2018-07-27T02:31:55.565Z,41.60
2018-07-27T02:34:24.410Z,41.90
2018-07-27T02:36:53.255Z,42.10
2018-07-27T02:39:22.274Z,42.20
2018-07-27T02:41:51.468Z,42.10
2018-07-27T02:44:20.395Z,42.20
2018-07-27T02:46:49.297Z,42.40
2018-07-27T02:49:18.160Z,42.40
2018-07-27T02:51:47.111Z,42.50
2018-07-27T02:54:15.966Z,42.50
2018-07-27T02:56:44.833Z,42.70
2018-07-27T02:59:13.696Z,43.00
2018-07-27T03:01:42.539Z,42.80
2018-07-27T03:04:11.485Z,43.40
2018-07-27T03:06:43.103Z,43.40
2018-07-27T03:09:13.188Z,43.40
2018-07-27T03:11:42.303Z,43.30
2018-07-27T03:14:11.419Z,43.30
2018-07-27T03:16:44.985Z,43.30
2018-07-27T03:19:14.103Z,43.30
2018-07-27T03:21:42.978Z,43.60
2018-07-27T03:24:11.846Z,43.40
2018-07-27T03:26:40.689Z,43.30
2018-07-27T03:29:09.558Z,43.30
2018-07-27T03:31:38.411Z,43.40
2018-07-27T03:34:07.266Z,43.60
2018-07-27T03:36:36.134Z,43.40
2018-07-27T03:39:08.239Z,43.70
2018-07-27T03:41:37.254Z,43.70
2018-07-27T03:44:06.876Z,43.60
2018-07-27T03:46:35.784Z,43.60
2018-07-27T03:49:04.663Z,44.00
2018-07-27T03:51:33.826Z,43.70
2018-07-27T03:54:02.703Z,44.10
2018-07-27T03:56:31.560Z,43.90
2018-07-27T03:59:00.419Z,43.70
2018-07-27T04:01:29.590Z,44.00
2018-07-27T04:03:58.752Z,44.00
2018-07-27T04:06:28.069Z,43.90
2018-07-27T04:08:56.913Z,44.00
2018-07-27T04:11:26.015Z,43.90
2018-07-27T04:13:55.178Z,44.40
2018-07-27T04:16:24.367Z,43.90
2018-07-27T04:18:53.447Z,44.10
2018-07-27T04:21:22.297Z,44.10
2018-07-27T04:23:51.165Z,44.90
2018-07-27T04:26:20.088Z,45.00
2018-07-27T04:28:49.017Z,45.00
2018-07-27T04:31:17.864Z,45.30
2018-07-27T04:33:46.736Z,45.80
2018-07-27T04:36:15.596Z,45.80
2018-07-27T04:38:44.477Z,46.20
2018-07-27T04:41:13.709Z,46.20
2018-07-27T04:43:42.562Z,46.40
2018-07-27T04:46:11.428Z,46.70
2018-07-27T04:48:40.549Z,47.10
2018-07-27T04:51:09.658Z,47.40
2018-07-27T04:53:38.775Z,47.70
2018-07-27T04:56:08.262Z,47.80
2018-07-27T04:58:37.115Z,47.70
2018-07-27T05:01:05.983Z,47.80
2018-07-27T05:03:35.055Z,48.10
2018-07-27T05:06:04.219Z,48.70
2018-07-27T05:08:37.331Z,48.40
2018-07-27T05:11:09.115Z,48.40
2018-07-27T05:13:39.090Z,48.30
2018-07-27T05:16:08.394Z,48.10
2018-07-27T05:18:37.883Z,48.10
2018-07-27T05:21:07.034Z,48.60
2018-07-27T05:23:35.988Z,48.70
2018-07-27T05:26:04.923Z,48.10
2018-07-27T05:28:33.856Z,48.70
2018-07-27T05:31:02.960Z,48.90
2018-07-27T05:33:31.826Z,48.70
2018-07-27T05:36:00.700Z,48.60
2018-07-27T05:38:29.830Z,48.70
2018-07-27T05:40:58.724Z,48.40
2018-07-27T05:43:27.621Z,48.60
2018-07-27T05:45:56.484Z,48.10
2018-07-27T05:48:25.728Z,48.00
2018-07-27T05:50:54.829Z,47.50
2018-07-27T05:53:23.915Z,47.70
2018-07-27T05:55:52.763Z,47.40
2018-07-27T05:58:21.653Z,47.30
2018-07-27T06:00:50.865Z,46.80
2018-07-27T06:03:19.772Z,47.00
2018-07-27T06:05:48.683Z,46.50
2018-07-27T06:08:18.847Z,46.40
2018-07-27T06:10:47.746Z,45.90
2018-07-27T06:13:16.767Z,45.30
2018-07-27T06:15:45.628Z,45.00
2018-07-27T06:18:14.927Z,44.90
2018-07-27T06:23:12.438Z,46.20
2018-07-27T06:25:41.422Z,46.50
2018-07-27T06:28:10.211Z,45.50
2018-07-27T06:30:39.047Z,45.00
2018-07-27T06:33:08.205Z,45.60
2018-07-27T06:35:37.386Z,45.60
2018-07-27T06:38:06.249Z,46.80
2018-07-27T06:40:35.356Z,46.50
2018-07-27T06:43:04.219Z,45.50
2018-07-27T06:45:33.364Z,44.40
2018-07-27T06:48:02.211Z,44.00
2018-07-27T06:50:32.005Z,43.90
2018-07-27T06:53:00.919Z,45.00
2018-07-27T06:55:30.161Z,44.40
2018-07-27T06:57:59.237Z,44.60
2018-07-27T07:00:28.195Z,44.70
2018-07-27T07:02:57.090Z,43.90
2018-07-27T07:05:26.258Z,44.10
2018-07-27T07:07:55.124Z,44.00
2018-07-27T07:10:24.011Z,42.70
2018-07-27T07:12:52.879Z,43.00
2018-07-27T07:15:21.731Z,43.10
2018-07-27T07:17:50.598Z,42.20
2018-07-27T07:20:19.571Z,42.10
2018-07-27T07:22:48.423Z,41.80
2018-07-27T07:25:17.320Z,40.90
2018-07-27T07:27:46.375Z,40.50
2018-07-27T07:30:15.542Z,40.20
2018-07-27T07:32:44.392Z,40.00
2018-07-27T07:35:13.403Z,39.40
2018-07-27T07:37:42.234Z,39.40
2018-07-27T07:40:11.751Z,38.80
2018-07-27T07:42:40.628Z,37.90
2018-07-27T07:45:09.942Z,37.10
2018-07-27T07:47:38.755Z,36.50
2018-07-27T07:50:08.227Z,35.90
2018-07-27T07:52:37.399Z,35.00
2018-07-27T07:55:06.467Z,34.10
2018-07-27T07:57:35.340Z,33.40
2018-07-27T08:00:05.631Z,32.50
2018-07-27T08:02:34.494Z,31.90
2018-07-27T08:05:03.432Z,31.00
2018-07-27T08:07:32.547Z,29.70
2018-07-27T08:10:01.451Z,29.20
2018-07-27T08:12:30.451Z,28.50
2018-07-27T08:14:59.671Z,28.00
2018-07-27T08:17:28.572Z,27.60
2018-07-27T08:19:57.467Z,27.10
2018-07-27T08:22:26.606Z,26.90
2018-07-27T08:24:55.809Z,27.10
2018-07-27T08:27:24.975Z,26.90
2018-07-27T08:29:53.891Z,26.80
2018-07-27T08:32:22.772Z,26.40
2018-07-27T08:34:51.623Z,26.80
2018-07-27T08:37:20.506Z,26.70
2018-07-27T08:39:49.482Z,26.80
2018-07-27T08:42:18.283Z,26.80
2018-07-27T08:44:47.174Z,27.00
2018-07-27T08:47:16.142Z,27.30
2018-07-27T08:49:45.246Z,27.30
2018-07-27T08:52:14.132Z,27.30
2018-07-27T08:54:43.017Z,27.30
2018-07-27T08:57:12.259Z,26.70
2018-07-27T08:59:41.122Z,26.40
2018-07-27T09:02:10.002Z,26.20
2018-07-27T09:04:38.888Z,26.40
2018-07-27T09:07:07.998Z,27.00
2018-07-27T09:09:36.871Z,26.90
2018-07-27T09:12:06.091Z,27.30
2018-07-27T09:14:35.204Z,26.90
2018-07-27T09:17:04.283Z,26.80
2018-07-27T09:19:33.167Z,26.50
2018-07-27T09:22:02.104Z,26.30
2018-07-27T09:24:31.029Z,25.60
2018-07-27T09:27:00.060Z,24.80
2018-07-27T09:29:28.903Z,25.20
2018-07-27T09:31:58.342Z,25.80
2018-07-27T09:34:27.207Z,25.90
2018-07-27T09:36:56.126Z,26.50
2018-07-27T09:39:25.350Z,27.00
2018-07-27T09:41:54.479Z,27.30
2018-07-27T09:44:23.643Z,27.20
2018-07-27T09:49:21.056Z,27.10
2018-07-27T09:51:49.891Z,27.20
2018-07-27T09:54:18.906Z,27.10
2018-07-27T09:56:48.304Z,27.10
2018-07-27T09:59:17.468Z,27.10
2018-07-27T10:01:46.402Z,27.40
2018-07-27T10:04:15.279Z,27.70
2018-07-27T10:06:44.151Z,27.10
2018-07-27T10:09:13.032Z,26.70
2018-07-27T10:11:41.908Z,26.50
2018-07-27T10:14:10.807Z,26.30
2018-07-27T10:16:39.651Z,26.20
2018-07-27T10:19:08.548Z,26.30
2018-07-27T10:21:37.424Z,25.80
2018-07-27T10:24:06.923Z,25.70
2018-07-27T10:26:36.086Z,25.80
2018-07-27T10:29:05.386Z,24.90
2018-07-27T10:31:34.328Z,24.30
2018-07-27T10:34:03.211Z,24.60
2018-07-27T10:36:32.110Z,24.90
2018-07-27T10:39:01.473Z,24.80
2018-07-27T10:41:30.740Z,24.90
2018-07-27T10:43:59.613Z,24.70
2018-07-27T10:46:28.457Z,24.70
2018-07-27T10:48:57.589Z,24.40
2018-07-27T10:51:26.462Z,24.80
2018-07-27T10:53:56.533Z,25.00
2018-07-27T10:56:26.528Z,24.50
2018-07-27T10:58:54.833Z,25.00
2018-07-27T11:01:23.930Z,25.10
2018-07-27T11:03:59.066Z,25.20
2018-07-27T11:06:28.046Z,25.10
2018-07-27T11:08:57.357Z,25.20
2018-07-27T11:11:27.031Z,25.30
2018-07-27T11:13:55.914Z,25.10
2018-07-27T11:16:24.821Z,25.20
2018-07-27T11:18:53.726Z,25.10
2018-07-27T11:21:22.604Z,25.20
2018-07-27T11:23:51.494Z,24.80
2018-07-27T11:26:20.402Z,24.90
2018-07-27T11:28:49.634Z,24.80
2018-07-27T11:31:18.510Z,24.90
2018-07-27T11:33:47.392Z,24.80
2018-07-27T11:36:16.483Z,24.50
2018-07-27T11:38:45.353Z,24.50
2018-07-27T11:41:14.239Z,24.40
2018-07-27T11:43:43.070Z,23.70
2018-07-27T11:46:12.483Z,23.50
2018-07-27T11:48:42.112Z,23.20
2018-07-27T11:51:11.127Z,23.20
2018-07-27T11:53:40.434Z,23.40
2018-07-27T11:56:09.264Z,23.40
2018-07-27T11:58:38.133Z,23.20
2018-07-27T12:01:07.712Z,23.30
2018-07-27T12:03:36.559Z,23.00
2018-07-27T12:06:05.447Z,23.30
2018-07-27T12:08:34.400Z,22.80
2018-07-27T12:11:03.970Z,22.90
2018-07-27T12:13:33.075Z,23.20
2018-07-27T12:16:01.940Z,23.00
2018-07-27T12:18:31.012Z,22.60
2018-07-27T12:21:00.174Z,23.00
2018-07-27T12:23:28.963Z,22.80
2018-07-27T12:25:57.863Z,23.10
2018-07-27T12:28:26.743Z,23.10
2018-07-27T12:30:55.681Z,22.50
2018-07-27T12:33:24.863Z,22.60
2018-07-27T12:35:53.739Z,22.40
2018-07-27T12:38:25.080Z,22.80
2018-07-27T12:40:57.187Z,22.80
2018-07-27T12:45:56.689Z,23.20
2018-07-27T12:48:26.482Z,23.30
2018-07-27T12:50:55.356Z,22.90
2018-07-27T12:53:25.035Z,22.50
2018-07-27T12:55:54.897Z,23.00
2018-07-27T12:58:26.904Z,22.80
2018-07-27T13:00:55.783Z,22.30
2018-07-27T13:03:28.662Z,22.70
2018-07-27T13:05:58.786Z,22.50
2018-07-27T13:08:29.084Z,22.70
2018-07-27T13:10:59.605Z,23.20
2018-07-27T13:13:29.908Z,22.90
2018-07-27T13:15:59.407Z,23.10
2018-07-27T13:18:28.979Z,23.00
2018-07-27T13:20:59.322Z,23.10
2018-07-27T13:23:28.767Z,22.80
2018-07-27T13:28:45.566Z,22.80
2018-07-27T13:31:14.589Z,22.70
2018-07-27T13:33:55.823Z,22.10
2018-07-27T13:36:25.935Z,22.40
2018-07-27T13:38:54.867Z,22.40
2018-07-27T13:41:24.790Z,22.80
2018-07-27T13:43:53.688Z,23.00
2018-07-27T13:46:23.408Z,23.00
2018-07-27T13:48:52.275Z,23.00
2018-07-27T13:51:21.288Z,23.20
2018-07-27T13:53:52.735Z,23.20
2018-07-27T13:56:22.367Z,23.20
2018-07-27T13:58:51.251Z,23.20
2018-07-27T14:01:21.821Z,23.80
2018-07-27T14:03:53.800Z,24.00
2018-07-27T14:06:22.823Z,23.80
2018-07-27T14:08:52.490Z,23.70
2018-07-27T14:11:22.263Z,23.40
2018-07-27T14:13:51.147Z,23.40
2018-07-27T14:16:20.260Z,24.00
2018-07-27T14:18:50.463Z,24.00
2018-07-27T14:21:19.534Z,23.60
2018-07-27T14:23:48.417Z,23.90
2018-07-27T14:26:21.214Z,24.00
2018-07-27T14:28:52.053Z,24.10
2018-07-27T14:31:22.082Z,23.90
2018-07-27T14:33:57.772Z,23.80
2018-07-27T14:36:27.260Z,23.90
2018-07-27T14:38:56.207Z,23.90
2018-07-27T14:41:25.172Z,23.90
2018-07-27T14:43:55.018Z,24.00
2018-07-27T14:46:24.000Z,23.90
2018-07-27T14:48:53.207Z,23.90
2018-07-27T14:51:22.066Z,24.40
2018-07-27T14:53:50.990Z,24.40
2018-07-27T14:56:19.859Z,24.50
2018-07-27T14:58:48.809Z,24.40
2018-07-27T15:01:17.670Z,24.40
2018-07-27T15:03:46.580Z,24.40
2018-07-27T15:06:15.427Z,24.60
2018-07-27T15:08:44.359Z,24.50
2018-07-27T15:11:13.245Z,24.60
2018-07-27T15:13:42.337Z,24.80
2018-07-27T15:16:11.556Z,24.90
2018-07-27T15:18:40.470Z,24.80
2018-07-27T15:21:09.328Z,24.90
2018-07-27T15:26:07.374Z,25.10
2018-07-27T15:28:36.374Z,24.40
2018-07-27T15:31:05.330Z,24.90
2018-07-27T15:33:37.821Z,24.40
2018-07-27T15:36:07.749Z,24.30
2018-07-27T15:38:37.262Z,24.20
2018-07-27T15:41:07.261Z,24.20
2018-07-27T15:43:36.468Z,24.50
2018-07-27T15:46:05.386Z,24.80
2018-07-27T15:48:34.560Z,25.20
2018-07-27T15:51:03.460Z,25.20
2018-07-27T15:53:32.727Z,25.30
2018-07-27T15:56:01.608Z,25.30
2018-07-27T15:58:30.495Z,26.00
2018-07-27T16:00:59.467Z,26.50
2018-07-27T16:03:28.355Z,26.80
2018-07-27T16:08:25.780Z,27.20
2018-07-27T16:10:54.886Z,27.50
2018-07-27T16:13:24.729Z,27.60
2018-07-27T16:15:53.682Z,27.70
2018-07-27T16:18:22.470Z,27.70
2018-07-27T16:20:51.362Z,27.90
2018-07-27T16:23:20.253Z,28.10
2018-07-27T16:25:49.110Z,28.20
2018-07-27T16:28:18.019Z,28.20
2018-07-27T16:30:47.161Z,28.20
2018-07-27T16:33:16.006Z,28.20
2018-07-27T16:35:45.418Z,27.90
2018-07-27T16:38:14.385Z,27.90
2018-07-27T16:40:43.245Z,27.90
2018-07-27T16:43:12.752Z,28.00
2018-07-27T16:45:41.965Z,28.10
2018-07-27T16:48:10.829Z,27.90
2018-07-27T16:50:39.903Z,28.10
2018-07-27T16:53:08.823Z,28.20
2018-07-27T16:55:37.724Z,28.30
2018-07-27T16:58:06.634Z,28.50
2018-07-27T17:00:35.536Z,28.80
2018-07-27T17:03:04.600Z,28.90
2018-07-27T17:05:33.593Z,29.10
2018-07-27T17:08:02.567Z,29.30
2018-07-27T17:10:31.632Z,29.40
2018-07-27T17:13:00.560Z,29.50
2018-07-27T17:15:30.236Z,29.60
2018-07-27T17:17:59.271Z,29.60
2018-07-27T17:20:28.236Z,29.70
2018-07-27T17:22:57.397Z,29.70
2018-07-27T17:25:26.364Z,29.80
2018-07-27T17:27:55.192Z,29.90
2018-07-27T17:30:24.275Z,29.90
2018-07-27T17:32:53.212Z,30.30
2018-07-27T17:35:22.032Z,30.60
2018-07-27T17:37:50.959Z,30.40
2018-07-27T17:40:20.050Z,30.40
2018-07-27T17:42:49.170Z,30.40
2018-07-27T17:45:18.278Z,30.70
2018-07-27T17:47:47.421Z,30.60
2018-07-27T17:50:17.076Z,30.80
2018-07-27T17:52:46.841Z,31.10
2018-07-27T17:55:15.870Z,31.60
2018-07-27T17:57:44.755Z,32.20
2018-07-27T18:00:13.883Z,32.60
2018-07-27T18:02:42.779Z,32.90
2018-07-27T18:05:11.679Z,33.20
2018-07-27T18:07:40.784Z,33.50
2018-07-27T18:10:09.618Z,33.70
2018-07-27T18:12:38.765Z,33.80
2018-07-27T18:15:08.216Z,34.00
2018-07-27T18:17:37.319Z,34.40
2018-07-27T18:20:08.141Z,34.70
2018-07-27T18:22:37.171Z,35.00
2018-07-27T18:25:09.093Z,35.40
2018-07-27T18:27:37.983Z,35.70
2018-07-27T18:30:07.346Z,35.90
2018-07-27T18:32:36.499Z,36.20
2018-07-27T18:35:05.608Z,36.60
2018-07-27T18:37:34.492Z,37.20
2018-07-27T18:40:03.427Z,37.80
2018-07-27T18:42:32.341Z,38.20
2018-07-27T18:45:01.213Z,39.10
2018-07-27T18:47:30.092Z,39.60
2018-07-27T18:49:59.326Z,40.20
2018-07-27T18:52:28.204Z,40.60
2018-07-27T18:54:57.115Z,40.90
2018-07-27T18:57:25.982Z,41.00
2018-07-27T18:59:54.996Z,41.00
2018-07-27T19:02:24.198Z,40.70
2018-07-27T19:04:53.080Z,40.70
2018-07-27T19:07:22.304Z,40.70
2018-07-27T19:09:51.271Z,40.60
2018-07-27T19:12:20.197Z,40.60
2018-07-27T19:14:49.060Z,40.60
2018-07-27T19:17:17.956Z,40.70
2018-07-27T19:19:46.821Z,40.60
2018-07-27T19:22:15.732Z,40.70
2018-07-27T19:24:44.998Z,40.70
2018-07-27T19:27:14.297Z,40.90
2018-07-27T19:29:43.457Z,41.20
2018-07-27T19:32:12.347Z,41.80
2018-07-27T19:34:41.243Z,42.10
2018-07-27T19:37:10.112Z,41.90
2018-07-27T19:39:39.286Z,41.80
2018-07-27T19:42:08.216Z,42.10
2018-07-27T19:44:37.079Z,41.90
2018-07-27T19:47:06.000Z,41.60
2018-07-27T19:49:34.972Z,41.30
2018-07-27T19:54:32.473Z,41.20
2018-07-27T19:57:01.631Z,41.60
2018-07-27T19:59:30.535Z,41.90
2018-07-27T20:01:59.823Z,42.10
2018-07-27T20:04:28.743Z,41.90
2018-07-27T20:06:57.616Z,41.80
2018-07-27T20:09:26.531Z,41.80
2018-07-27T20:14:24.261Z,41.80
2018-07-27T20:16:53.154Z,41.60
2018-07-27T20:19:22.130Z,41.80
2018-07-27T20:21:51.406Z,42.10
2018-07-27T20:24:20.271Z,42.10
2018-07-27T20:26:49.435Z,41.90
2018-07-27T20:29:18.335Z,42.10
2018-07-27T20:31:47.479Z,42.40
2018-07-27T20:36:45.383Z,43.10
2018-07-27T20:39:14.704Z,43.30
2018-07-27T20:41:44.113Z,43.40
2018-07-27T20:44:13.059Z,43.10
2018-07-27T20:46:41.953Z,43.10
2018-07-27T20:49:10.859Z,43.90
2018-07-27T20:51:39.838Z,44.10
2018-07-27T20:54:09.205Z,44.60
2018-07-27T20:56:38.142Z,44.60
2018-07-27T20:59:07.263Z,45.20
2018-07-27T21:01:36.305Z,45.20
2018-07-27T21:04:05.193Z,45.50
2018-07-27T21:06:34.392Z,46.10
2018-07-27T21:09:04.134Z,46.70
2018-07-27T21:11:33.026Z,47.10
2018-07-27T21:14:01.935Z,47.30
2018-07-27T21:16:30.780Z,47.40
2018-07-27T21:18:59.957Z,47.40
2018-07-27T21:21:28.814Z,47.40
2018-07-27T21:23:57.788Z,47.50
2018-07-27T21:26:26.938Z,47.40
2018-07-27T21:28:55.855Z,47.00
2018-07-27T21:31:24.896Z,46.50
2018-07-27T21:33:54.052Z,46.10
2018-07-27T21:36:22.995Z,45.90
2018-07-27T21:38:52.156Z,45.80
2018-07-27T21:41:21.262Z,45.80
2018-07-27T21:43:50.242Z,45.80
2018-07-27T21:46:19.203Z,45.80
2018-07-27T21:51:16.652Z,45.60
2018-07-27T21:53:45.555Z,45.80
2018-07-27T21:56:14.502Z,45.60
2018-07-27T21:58:43.424Z,45.80
2018-07-27T22:01:13.554Z,45.60
2018-07-27T22:03:44.998Z,45.80
2018-07-27T22:06:14.167Z,45.90
2018-07-27T22:08:43.255Z,45.90
2018-07-27T22:11:12.260Z,46.10
2018-07-27T22:13:41.569Z,46.40
2018-07-27T22:16:10.608Z,46.70
2018-07-27T22:18:39.513Z,47.30
2018-07-27T22:21:08.415Z,47.40
2018-07-27T22:23:37.939Z,47.40
2018-07-27T22:26:07.217Z,47.40
2018-07-27T22:28:37.309Z,47.30
2018-07-27T22:31:08.486Z,47.30
2018-07-27T22:33:39.176Z,47.40
2018-07-27T22:36:09.508Z,47.50
2018-07-27T22:41:09.159Z,47.40
2018-07-27T22:43:38.150Z,47.50
2018-07-27T22:46:07.031Z,47.50
2018-07-27T22:48:35.954Z,47.50
2018-07-27T22:51:05.078Z,47.80
2018-07-27T22:53:33.964Z,47.80
2018-07-27T22:56:02.899Z,47.70
2018-07-27T22:58:32.034Z,47.70
2018-07-27T23:01:00.927Z,47.40
2018-07-27T23:03:29.774Z,47.30
2018-07-27T23:05:58.630Z,46.70
2018-07-27T23:08:27.508Z,46.80
2018-07-27T23:10:56.417Z,46.70
2018-07-27T23:13:25.268Z,46.70
2018-07-27T23:15:54.320Z,46.70
2018-07-27T23:18:23.204Z,47.10
2018-07-27T23:20:52.141Z,47.40
2018-07-27T23:23:20.999Z,47.50
2018-07-27T23:25:49.911Z,47.50
2018-07-27T23:28:18.758Z,47.80
2018-07-27T23:30:47.606Z,48.00
2018-07-27T23:33:16.499Z,47.80
2018-07-27T23:35:45.337Z,47.80
2018-07-27T23:38:14.209Z,47.80
2018-07-27T23:40:43.367Z,48.30
2018-07-27T23:43:12.506Z,48.40
2018-07-27T23:45:41.362Z,48.60
2018-07-27T23:48:10.741Z,48.60
2018-07-27T23:50:39.595Z,48.60
2018-07-27T23:53:08.446Z,48.40
2018-07-27T23:55:37.325Z,48.60
2018-07-27T23:58:06.207Z,48.60
